createdAt,value
2022-07-29T00:00:16.883Z,3.00
2022-07-29T00:02:44.663Z,2.67
2022-07-29T00:05:14.560Z,2.00
2022-07-29T00:07:42.535Z,3.00
2022-07-29T00:10:10.421Z,3.00
2022-07-29T00:12:37.974Z,3.00
2022-07-29T00:15:06.389Z,3.75
2022-07-29T00:17:34.996Z,3.50
2022-07-29T00:20:02.501Z,3.00
2022-07-29T00:22:31.306Z,4.00
2022-07-29T00:24:58.785Z,4.25
2022-07-29T00:27:26.243Z,3.50
2022-07-29T00:29:53.722Z,4.00
2022-07-29T00:32:21.171Z,4.50
2022-07-29T00:35:05.961Z,4.00
2022-07-29T00:37:34.690Z,3.00
2022-07-29T00:40:02.241Z,3.50
2022-07-29T00:42:29.711Z,4.00
2022-07-29T00:44:57.161Z,4.75
2022-07-29T00:47:24.642Z,4.00
2022-07-29T00:49:52.288Z,4.25
2022-07-29T00:52:19.750Z,3.25
2022-07-29T00:54:48.510Z,4.50
2022-07-29T00:57:16.172Z,5.00
2022-07-29T00:59:43.642Z,4.00
2022-07-29T01:02:11.172Z,5.00
2022-07-29T01:04:38.686Z,5.00
2022-07-29T01:07:06.179Z,3.25
2022-07-29T01:09:45.484Z,3.00
2022-07-29T01:12:16.854Z,4.00
2022-07-29T01:14:44.503Z,4.00
2022-07-29T01:17:13.855Z,4.25
2022-07-29T01:20:02.734Z,4.00
2022-07-29T01:22:33.909Z,4.00
2022-07-29T01:25:20.267Z,5.00
2022-07-29T01:28:03.335Z,4.50
2022-07-29T01:30:32.834Z,4.25
2022-07-29T01:33:03.754Z,4.00
2022-07-29T01:35:34.045Z,4.67
2022-07-29T01:38:03.458Z,4.00
2022-07-29T01:40:32.863Z,5.00
2022-07-29T01:43:00.407Z,2.25
2022-07-29T01:45:28.778Z,2.00
2022-07-29T01:47:59.210Z,4.75
2022-07-29T01:50:30.673Z,3.00
2022-07-29T01:52:58.783Z,5.00
2022-07-29T01:55:27.414Z,4.00
2022-07-29T01:57:55.011Z,4.00
2022-07-29T02:00:22.446Z,5.00
2022-07-29T02:02:49.892Z,4.75
2022-07-29T02:05:19.758Z,3.50
2022-07-29T02:07:48.259Z,4.00
2022-07-29T02:10:15.722Z,4.00
2022-07-29T02:12:43.161Z,3.00
2022-07-29T02:15:16.062Z,4.00
2022-07-29T02:17:44.521Z,4.50
2022-07-29T02:20:12.152Z,4.00
2022-07-29T02:22:41.364Z,4.25
2022-07-29T02:25:14.126Z,3.75
2022-07-29T02:27:41.935Z,3.75
2022-07-29T02:30:10.968Z,3.00
2022-07-29T02:32:38.918Z,4.00
2022-07-29T02:35:08.646Z,4.00
2022-07-29T02:37:36.093Z,4.00
2022-07-29T02:40:05.400Z,3.00
2022-07-29T02:42:32.848Z,3.00
2022-07-29T02:45:00.297Z,3.67
2022-07-29T02:47:30.690Z,4.00
2022-07-29T02:50:11.158Z,3.33
2022-07-29T02:52:41.292Z,4.00
2022-07-29T02:55:13.070Z,5.00
2022-07-29T02:57:54.113Z,4.00
2022-07-29T03:00:22.759Z,3.33
2022-07-29T03:02:52.541Z,3.00
2022-07-29T03:05:21.519Z,4.00
2022-07-29T03:07:54.436Z,4.00
2022-07-29T03:10:23.591Z,4.00
2022-07-29T03:12:51.029Z,3.50
2022-07-29T03:15:18.492Z,3.00
2022-07-29T03:17:45.924Z,4.00
2022-07-29T03:20:13.681Z,4.00
2022-07-29T03:22:44.309Z,3.25
2022-07-29T03:25:12.231Z,4.00
2022-07-29T03:27:41.042Z,4.00
2022-07-29T03:30:09.319Z,3.25
2022-07-29T03:32:36.758Z,3.00
2022-07-29T03:35:04.610Z,4.00
2022-07-29T03:37:32.285Z,4.00
2022-07-29T03:40:00.144Z,4.00
2022-07-29T03:42:33.821Z,3.75
2022-07-29T03:45:05.603Z,3.25
2022-07-29T03:47:49.682Z,4.00
2022-07-29T03:50:20.224Z,4.00
2022-07-29T03:52:47.724Z,3.00
2022-07-29T03:55:15.348Z,3.75
2022-07-29T03:57:42.821Z,3.00
2022-07-29T04:00:12.137Z,4.00
2022-07-29T04:02:40.104Z,4.00
2022-07-29T04:05:08.075Z,4.00
2022-07-29T04:07:35.514Z,3.67
2022-07-29T04:10:02.965Z,4.00
2022-07-29T04:12:30.404Z,3.00
2022-07-29T04:14:57.849Z,4.33
2022-07-29T04:17:26.587Z,3.00
2022-07-29T04:19:54.027Z,3.67
2022-07-29T04:22:21.486Z,4.00
2022-07-29T04:24:50.508Z,4.00
2022-07-29T04:27:17.953Z,4.00
2022-07-29T04:29:56.243Z,3.75
2022-07-29T04:32:25.991Z,4.50
2022-07-29T04:34:53.617Z,4.00
2022-07-29T04:37:21.072Z,4.25
2022-07-29T04:39:48.519Z,4.00
2022-07-29T04:42:15.978Z,4.25
2022-07-29T04:44:44.837Z,4.00
2022-07-29T04:47:13.086Z,3.00
2022-07-29T04:49:41.850Z,4.50
2022-07-29T04:52:09.290Z,4.50
2022-07-29T04:54:36.734Z,3.50
2022-07-29T04:57:04.344Z,4.50
2022-07-29T04:59:31.783Z,4.00
2022-07-29T05:01:59.285Z,3.25
2022-07-29T05:04:26.791Z,2.75
2022-07-29T05:06:55.519Z,3.00
2022-07-29T05:09:22.985Z,4.00
2022-07-29T05:11:50.472Z,3.33
2022-07-29T05:14:18.293Z,4.00
2022-07-29T05:16:46.049Z,4.00
2022-07-29T05:19:14.657Z,2.00
2022-07-29T05:21:42.715Z,4.00
2022-07-29T05:24:11.443Z,4.00
2022-07-29T05:26:38.886Z,4.75
2022-07-29T05:29:06.325Z,4.00
2022-07-29T05:31:34.515Z,3.75
2022-07-29T05:34:01.959Z,3.00
2022-07-29T05:36:29.423Z,1.75
2022-07-29T05:38:56.847Z,4.50
2022-07-29T05:41:25.897Z,4.00
2022-07-29T05:43:53.413Z,4.00
2022-07-29T05:46:21.203Z,4.00
2022-07-29T05:48:48.717Z,4.25
2022-07-29T05:51:16.547Z,4.00
2022-07-29T05:53:44.146Z,4.00
2022-07-29T05:56:12.090Z,3.00
2022-07-29T05:58:40.908Z,3.50
2022-07-29T06:01:08.371Z,5.00
2022-07-29T06:03:38.601Z,3.00
2022-07-29T06:06:06.929Z,4.00
2022-07-29T06:08:34.683Z,4.00
2022-07-29T06:11:02.195Z,4.25
2022-07-29T06:13:29.655Z,3.25
2022-07-29T06:15:58.424Z,4.00
2022-07-29T06:18:26.777Z,4.00
2022-07-29T06:20:54.333Z,3.00
2022-07-29T06:23:22.237Z,3.00
2022-07-29T06:25:50.650Z,4.00
2022-07-29T06:28:18.109Z,3.00
2022-07-29T06:30:45.644Z,3.00
2022-07-29T06:33:19.630Z,4.00
2022-07-29T06:35:53.317Z,3.00
2022-07-29T06:38:49.435Z,4.00
2022-07-29T06:41:18.999Z,3.50
2022-07-29T06:43:52.658Z,4.00
2022-07-29T06:46:23.746Z,4.00
2022-07-29T06:48:53.473Z,3.75
2022-07-29T06:51:23.111Z,3.50
2022-07-29T06:53:59.931Z,3.00
2022-07-29T06:56:30.964Z,3.25
2022-07-29T06:58:58.430Z,4.00
2022-07-29T07:01:25.968Z,3.00
2022-07-29T07:03:54.774Z,4.25
2022-07-29T07:06:22.267Z,3.75
2022-07-29T07:08:49.709Z,4.00
2022-07-29T07:11:17.167Z,2.75
2022-07-29T07:13:44.645Z,4.00
2022-07-29T07:16:12.193Z,4.00
2022-07-29T07:18:39.655Z,3.00
2022-07-29T07:21:08.429Z,3.00
2022-07-29T07:23:35.877Z,3.00
2022-07-29T07:26:03.994Z,2.33
2022-07-29T07:28:31.443Z,2.00
2022-07-29T07:30:59.472Z,2.75
2022-07-29T07:33:26.931Z,2.75
2022-07-29T07:35:54.705Z,1.50
2022-07-29T07:38:23.451Z,3.00
2022-07-29T07:40:50.900Z,4.00
2022-07-29T07:43:18.337Z,0.50
2022-07-29T07:45:45.820Z,3.00
2022-07-29T07:48:13.278Z,3.00
2022-07-29T07:50:40.726Z,2.75
2022-07-29T07:53:08.301Z,3.00
2022-07-29T07:56:08.129Z,0.25
2022-07-29T07:58:28.702Z,5.00
2022-07-29T08:00:56.319Z,6.00
2022-07-29T08:03:23.824Z,5.00
2022-07-29T08:05:51.930Z,6.00
2022-07-29T08:08:19.402Z,6.50
2022-07-29T08:10:54.221Z,6.00
2022-07-29T08:13:22.119Z,5.00
2022-07-29T08:15:58.220Z,6.00
2022-07-29T08:18:25.922Z,7.00
2022-07-29T08:20:53.436Z,6.00
2022-07-29T08:23:20.911Z,6.75
2022-07-29T08:25:50.204Z,9.50
2022-07-29T08:28:17.978Z,7.75
2022-07-29T08:30:45.794Z,8.33
2022-07-29T08:33:13.274Z,9.33
2022-07-29T08:35:40.718Z,8.33
2022-07-29T08:38:08.196Z,9.50
2022-07-29T08:40:35.652Z,10.00
2022-07-29T08:43:07.978Z,9.25
2022-07-29T08:45:53.373Z,7.25
2022-07-29T08:48:21.913Z,8.25
2022-07-29T08:50:49.934Z,10.00
2022-07-29T08:53:18.896Z,10.25
2022-07-29T08:55:51.300Z,9.00
2022-07-29T08:58:23.106Z,9.00
2022-07-29T09:00:53.126Z,10.00
2022-07-29T09:03:25.105Z,8.00
2022-07-29T09:05:52.656Z,8.75
2022-07-29T09:08:20.975Z,7.00
2022-07-29T09:10:48.444Z,8.00
2022-07-29T09:13:15.923Z,7.50
2022-07-29T09:15:45.280Z,7.00
2022-07-29T09:18:19.489Z,6.25
2022-07-29T09:21:27.859Z,7.00
2022-07-29T09:24:06.496Z,5.00
2022-07-29T09:26:34.629Z,6.00
2022-07-29T09:29:02.068Z,6.00
2022-07-29T09:31:36.339Z,6.75
2022-07-29T09:34:04.040Z,5.50
2022-07-29T09:36:31.488Z,6.00
2022-07-29T09:38:59.740Z,5.50
2022-07-29T09:41:27.640Z,5.00
2022-07-29T09:43:56.218Z,5.00
2022-07-29T09:46:23.746Z,4.75
2022-07-29T09:49:10.471Z,5.00
2022-07-29T09:51:38.902Z,5.00
2022-07-29T09:54:24.780Z,3.00
2022-07-29T09:56:52.375Z,1.75
2022-07-29T09:59:21.331Z,3.00
2022-07-29T10:01:48.788Z,4.00
2022-07-29T10:04:17.514Z,5.00
2022-07-29T10:07:03.862Z,4.00
2022-07-29T10:09:32.497Z,5.00
2022-07-29T10:12:11.770Z,3.00
2022-07-29T10:14:39.495Z,4.00
2022-07-29T10:17:07.652Z,4.00
2022-07-29T10:19:36.805Z,4.00
2022-07-29T10:22:06.887Z,4.00
2022-07-29T10:24:34.477Z,4.00
2022-07-29T10:27:02.519Z,4.00
2022-07-29T10:29:32.230Z,4.00
2022-07-29T10:32:10.407Z,5.00
2022-07-29T10:34:50.411Z,3.33
2022-07-29T10:37:21.965Z,4.00
2022-07-29T10:39:55.326Z,4.25
2022-07-29T10:42:33.437Z,5.00
2022-07-29T10:45:02.166Z,4.00
2022-07-29T10:47:29.649Z,4.00
2022-07-29T10:49:59.204Z,5.25
2022-07-29T10:53:17.750Z,4.50
2022-07-29T10:55:49.504Z,3.75
2022-07-29T10:58:19.080Z,4.00
2022-07-29T11:00:47.786Z,5.00
2022-07-29T11:03:50.433Z,5.50
2022-07-29T11:06:27.077Z,5.00
2022-07-29T11:09:18.057Z,5.00
2022-07-29T11:14:59.889Z,5.25
2022-07-29T11:17:27.636Z,5.00
2022-07-29T11:20:33.169Z,4.25
2022-07-29T11:23:01.940Z,6.00
2022-07-29T11:25:50.086Z,5.50
2022-07-29T11:28:22.791Z,5.25
2022-07-29T11:30:53.269Z,6.50
2022-07-29T11:33:54.100Z,5.75
2022-07-29T11:36:28.110Z,7.00
2022-07-29T11:39:12.208Z,5.50
2022-07-29T11:41:42.645Z,7.00
2022-07-29T11:44:10.195Z,7.50
2022-07-29T11:46:47.449Z,6.75
2022-07-29T11:52:03.855Z,6.75
2022-07-29T11:54:58.365Z,6.25
2022-07-29T11:57:21.916Z,7.50
2022-07-29T11:59:49.573Z,7.00
2022-07-29T12:02:37.154Z,8.00
2022-07-29T12:05:10.391Z,4.25
2022-07-29T12:07:03.939Z,6.25
2022-07-29T12:07:38.519Z,6.25
2022-07-29T12:10:11.595Z,8.25
2022-07-29T12:12:50.237Z,8.00
2022-07-29T12:15:21.335Z,5.50
2022-07-29T12:17:49.925Z,6.75
2022-07-29T12:20:24.265Z,8.00
2022-07-29T12:22:54.590Z,7.75
2022-07-29T12:25:32.590Z,6.50
2022-07-29T12:28:01.197Z,8.25
2022-07-29T12:30:40.586Z,5.25
2022-07-29T12:33:13.328Z,7.75
2022-07-29T12:35:40.817Z,7.00
2022-07-29T12:38:08.261Z,7.50
2022-07-29T12:40:37.034Z,7.00
2022-07-29T12:43:08.444Z,6.50
2022-07-29T12:45:36.027Z,7.00
2022-07-29T12:48:03.581Z,7.00
2022-07-29T12:50:33.297Z,7.75
2022-07-29T12:53:11.154Z,8.25
2022-07-29T12:55:43.992Z,7.50
2022-07-29T12:58:11.426Z,6.50
2022-07-29T13:00:38.911Z,5.75
2022-07-29T13:03:07.271Z,7.00
2022-07-29T13:05:48.557Z,7.75
2022-07-29T13:08:21.939Z,8.00
2022-07-29T13:10:51.141Z,7.50
2022-07-29T13:13:18.632Z,8.25
2022-07-29T13:15:49.013Z,8.00
2022-07-29T13:18:29.220Z,8.50
2022-07-29T13:20:56.729Z,7.75
2022-07-29T13:23:24.171Z,7.00
2022-07-29T13:25:52.904Z,9.25
2022-07-29T13:28:22.435Z,9.25
2022-07-29T13:30:49.982Z,7.50
2022-07-29T13:33:17.691Z,8.00
2022-07-29T13:35:45.169Z,8.75
2022-07-29T13:38:12.633Z,8.00
2022-07-29T13:40:40.075Z,8.00
2022-07-29T13:43:10.542Z,9.00
2022-07-29T13:45:38.045Z,9.25
2022-07-29T13:48:07.189Z,7.50
2022-07-29T13:50:34.644Z,8.00
2022-07-29T13:53:02.091Z,8.00
2022-07-29T13:55:29.541Z,9.00
2022-07-29T13:57:56.992Z,8.25
2022-07-29T14:00:27.050Z,8.50
2022-07-29T14:02:54.730Z,8.75
2022-07-29T14:05:22.190Z,9.50
2022-07-29T14:07:49.637Z,8.50
2022-07-29T14:10:20.076Z,8.75
2022-07-29T14:12:47.768Z,9.00
2022-07-29T14:15:15.216Z,10.00
2022-07-29T14:17:43.933Z,9.50
2022-07-29T14:20:11.792Z,9.25
2022-07-29T14:22:42.446Z,8.00
2022-07-29T14:25:15.271Z,9.00
2022-07-29T14:27:43.142Z,8.75
2022-07-29T14:30:11.657Z,9.25
2022-07-29T14:32:39.090Z,8.33
2022-07-29T14:35:08.750Z,9.75
2022-07-29T14:37:40.535Z,10.00
2022-07-29T14:40:09.215Z,9.25
2022-07-29T14:42:37.075Z,10.25
2022-07-29T14:45:04.967Z,9.75
2022-07-29T14:47:33.863Z,9.00
2022-07-29T14:50:01.310Z,9.00
2022-07-29T14:52:30.047Z,10.00
2022-07-29T14:54:57.467Z,7.67
2022-07-29T14:57:24.922Z,9.25
2022-07-29T14:59:52.537Z,9.00
2022-07-29T15:02:20.076Z,7.00
2022-07-29T15:04:48.816Z,9.50
2022-07-29T15:07:16.612Z,8.00
2022-07-29T15:09:49.992Z,9.00
2022-07-29T15:12:17.648Z,8.00
2022-07-29T15:14:45.075Z,8.75
2022-07-29T15:17:12.556Z,9.75
2022-07-29T15:19:44.794Z,8.25
2022-07-29T15:22:12.699Z,8.50
2022-07-29T15:24:40.151Z,7.00
2022-07-29T15:27:14.813Z,8.75
2022-07-29T15:29:42.538Z,8.50
2022-07-29T15:32:10.049Z,9.00
2022-07-29T15:34:37.619Z,10.50
2022-07-29T15:37:05.107Z,9.50
2022-07-29T15:39:32.596Z,8.50
2022-07-29T15:42:01.351Z,8.00
2022-07-29T15:44:30.420Z,7.75
2022-07-29T15:47:07.245Z,8.75
2022-07-29T15:49:46.456Z,9.00
2022-07-29T15:52:14.488Z,9.25
2022-07-29T15:54:42.110Z,9.00
2022-07-29T15:57:10.787Z,9.25
2022-07-29T15:59:39.525Z,9.00
2022-07-29T16:02:07.180Z,8.00
2022-07-29T16:04:34.645Z,7.00
2022-07-29T16:07:02.111Z,9.00
2022-07-29T16:09:29.644Z,9.00
2022-07-29T16:11:57.145Z,7.00
2022-07-29T16:14:28.084Z,8.00
2022-07-29T16:16:57.909Z,7.25
2022-07-29T16:19:25.728Z,8.25
2022-07-29T16:21:55.927Z,7.50
2022-07-29T16:24:29.703Z,8.75
2022-07-29T16:26:57.478Z,7.00
2022-07-29T16:29:25.145Z,7.75
2022-07-29T16:31:53.012Z,9.25
2022-07-29T16:34:21.814Z,7.00
2022-07-29T16:36:49.247Z,8.00
2022-07-29T16:39:16.676Z,7.00
2022-07-29T16:41:44.125Z,7.25
2022-07-29T16:44:11.573Z,7.25
2022-07-29T16:46:39.040Z,8.00
2022-07-29T16:49:09.136Z,6.33
2022-07-29T16:51:37.902Z,7.33
2022-07-29T16:54:05.331Z,8.00
2022-07-29T16:56:32.767Z,7.67
2022-07-29T16:59:00.208Z,7.00
2022-07-29T17:01:27.677Z,7.75
2022-07-29T17:04:07.033Z,7.50
2022-07-29T17:06:35.036Z,7.75
2022-07-29T17:09:04.266Z,8.25
2022-07-29T17:11:52.452Z,7.75
2022-07-29T17:14:19.272Z,7.00
2022-07-29T17:17:02.288Z,7.33
2022-07-29T17:19:30.833Z,7.00
2022-07-29T17:22:06.374Z,8.33
2022-07-29T17:24:40.215Z,7.00
2022-07-29T17:27:08.533Z,7.00
2022-07-29T17:29:36.050Z,8.00
2022-07-29T17:32:03.577Z,7.67
2022-07-29T17:34:31.266Z,6.00
2022-07-29T17:36:58.999Z,6.33
2022-07-29T17:39:26.609Z,6.33
2022-07-29T17:41:55.463Z,6.67
2022-07-29T17:44:22.897Z,7.67
2022-07-29T17:46:50.420Z,7.67
2022-07-29T17:49:19.251Z,6.33
2022-07-29T17:51:46.906Z,7.00
2022-07-29T17:54:14.394Z,7.75
2022-07-29T17:56:41.864Z,6.75
2022-07-29T17:59:10.809Z,6.50
2022-07-29T18:01:39.971Z,6.75
2022-07-29T18:04:07.471Z,6.50
2022-07-29T18:06:34.950Z,7.00
2022-07-29T18:09:02.402Z,6.25
2022-07-29T18:11:30.865Z,6.50
2022-07-29T18:13:58.305Z,5.50
2022-07-29T18:16:31.291Z,6.25
2022-07-29T18:18:58.782Z,6.00
2022-07-29T18:21:43.728Z,7.00
2022-07-29T18:24:13.968Z,7.75
2022-07-29T18:26:41.426Z,6.50
2022-07-29T18:29:09.620Z,6.50
2022-07-29T18:31:41.034Z,6.00
2022-07-29T18:34:08.649Z,6.00
2022-07-29T18:36:36.114Z,6.00
2022-07-29T18:39:03.560Z,7.50
2022-07-29T18:41:31.312Z,6.50
2022-07-29T18:43:58.769Z,7.00
2022-07-29T18:46:26.243Z,6.75
2022-07-29T18:48:57.141Z,6.00
2022-07-29T18:51:24.641Z,7.00
2022-07-29T18:53:52.437Z,7.00
2022-07-29T18:56:19.881Z,6.75
2022-07-29T18:58:47.338Z,6.50
2022-07-29T19:01:16.599Z,6.75
2022-07-29T19:03:44.422Z,6.75
2022-07-29T19:06:13.650Z,6.25
2022-07-29T19:08:41.714Z,6.50
2022-07-29T19:11:09.151Z,7.00
2022-07-29T19:13:37.205Z,6.00
2022-07-29T19:16:04.868Z,6.50
2022-07-29T19:18:32.407Z,6.00
2022-07-29T19:20:59.852Z,6.75
2022-07-29T19:23:28.595Z,4.75
2022-07-29T19:25:56.108Z,6.67
2022-07-29T19:28:23.539Z,6.00
2022-07-29T19:30:51.064Z,6.33
2022-07-29T19:33:18.986Z,5.00
2022-07-29T19:35:49.343Z,7.00
2022-07-29T19:38:19.091Z,5.67
2022-07-29T19:40:48.658Z,5.33
2022-07-29T19:43:51.112Z,6.67
2022-07-29T19:46:03.599Z,6.67
2022-07-29T19:48:31.296Z,6.33
2022-07-29T19:50:58.742Z,8.00
2022-07-29T19:53:26.196Z,6.00
2022-07-29T19:55:54.960Z,6.00
2022-07-29T19:58:22.612Z,4.25
2022-07-29T20:00:54.475Z,6.00
2022-07-29T20:03:21.916Z,5.00
2022-07-29T20:05:51.017Z,6.00
2022-07-29T20:08:18.502Z,6.50
2022-07-29T20:10:45.925Z,5.25
2022-07-29T20:13:14.681Z,6.75
2022-07-29T20:15:42.238Z,6.50
2022-07-29T20:18:09.758Z,5.75
2022-07-29T20:20:37.209Z,5.00
2022-07-29T20:23:04.660Z,2.50
2022-07-29T20:25:32.234Z,4.00
2022-07-29T20:27:59.960Z,5.75
2022-07-29T20:30:29.336Z,6.25
2022-07-29T20:32:56.872Z,6.00
2022-07-29T20:35:24.324Z,5.00
2022-07-29T20:37:55.545Z,5.25
2022-07-29T20:40:23.686Z,5.50
2022-07-29T20:42:51.140Z,4.75
2022-07-29T20:45:19.958Z,5.75
2022-07-29T20:47:48.720Z,6.00
2022-07-29T20:50:16.150Z,5.25
2022-07-29T20:52:44.115Z,6.00
2022-07-29T20:55:11.630Z,5.50
2022-07-29T20:57:40.017Z,5.50
2022-07-29T21:00:08.636Z,5.00
2022-07-29T21:02:36.632Z,5.50
2022-07-29T21:05:05.950Z,5.00
2022-07-29T21:07:33.393Z,5.50
2022-07-29T21:10:00.872Z,6.50
2022-07-29T21:12:29.963Z,6.00
2022-07-29T21:14:57.721Z,5.75
2022-07-29T21:17:25.484Z,4.25
2022-07-29T21:19:55.158Z,6.25
2022-07-29T21:22:23.912Z,5.75
2022-07-29T21:24:51.369Z,5.00
2022-07-29T21:27:38.300Z,5.00
2022-07-29T21:30:07.323Z,5.00
2022-07-29T21:32:34.911Z,5.00
2022-07-29T21:35:02.382Z,4.50
2022-07-29T21:37:31.181Z,5.00
2022-07-29T21:39:58.622Z,5.33
2022-07-29T21:42:26.178Z,5.67
2022-07-29T21:44:53.971Z,6.00
2022-07-29T21:47:21.412Z,6.67
2022-07-29T21:49:48.855Z,5.67
2022-07-29T21:52:18.260Z,6.00
2022-07-29T21:54:46.976Z,5.00
2022-07-29T21:57:17.197Z,4.33
2022-07-29T21:59:44.641Z,5.50
2022-07-29T22:02:12.091Z,5.67
2022-07-29T22:04:39.554Z,4.33
2022-07-29T22:07:07.038Z,6.00
2022-07-29T22:09:34.495Z,5.33
2022-07-29T22:12:03.520Z,4.67
2022-07-29T22:14:30.964Z,5.33
2022-07-29T22:16:58.845Z,5.00
2022-07-29T22:19:27.673Z,5.75
2022-07-29T22:21:57.703Z,5.33
2022-07-29T22:24:25.141Z,5.33
2022-07-29T22:26:52.582Z,5.00
2022-07-29T22:29:21.676Z,3.25
2022-07-29T22:31:49.125Z,5.50
2022-07-29T22:34:16.571Z,5.50
2022-07-29T22:36:44.161Z,5.50
2022-07-29T22:39:11.602Z,4.50
2022-07-29T22:41:42.962Z,4.50
2022-07-29T22:44:10.400Z,6.00
2022-07-29T22:46:39.122Z,4.75
2022-07-29T22:49:06.636Z,1.50
2022-07-29T22:51:34.115Z,7.00
2022-07-29T22:54:01.544Z,5.50
2022-07-29T22:56:28.969Z,6.00
2022-07-29T22:58:56.404Z,6.00
2022-07-29T23:01:37.686Z,5.50
2022-07-29T23:04:06.945Z,4.75
2022-07-29T23:06:34.490Z,5.50
2022-07-29T23:09:01.953Z,6.50
2022-07-29T23:11:29.409Z,4.75
2022-07-29T23:13:57.039Z,7.00
2022-07-29T23:16:26.507Z,6.75
2022-07-29T23:18:54.751Z,7.00
2022-07-29T23:21:23.612Z,5.50
2022-07-29T23:23:51.092Z,6.50
2022-07-29T23:26:18.576Z,7.00
2022-07-29T23:28:46.139Z,6.25
2022-07-29T23:31:13.770Z,8.00
2022-07-29T23:33:41.283Z,5.00
2022-07-29T23:36:08.794Z,6.00
2022-07-29T23:38:39.258Z,5.00
2022-07-29T23:41:08.958Z,5.75
2022-07-29T23:43:36.811Z,7.00
2022-07-29T23:46:04.433Z,5.50
2022-07-29T23:48:33.807Z,7.00
2022-07-29T23:51:01.381Z,7.00
2022-07-29T23:53:29.051Z,6.00
2022-07-29T23:55:57.918Z,6.00
2022-07-29T23:58:25.368Z,8.00
